Terminal Aerodrome Forecast
Issued by NWS

Home | Current Version | Previous Version | Graphics & Text | Print | Product List | Glossary On
Versions: 1 2 3 4 5 6 7 8 9 10 11 12 13 14 15 16 17 18 19 20 21 22 23 24 25 26 27 28 29 30 31 32 33 34 35 36
000
FTUS43 KLOT 242100 AAB
TAFORD
TAF AMD
KORD 242155Z 2422/2524 25015G25KT P6SM FEW025 SCT040
     FM242300 27015G25KT P6SM SCT035 BKN050
      TEMPO 2423/2424 5SM -SHSN BKN025
     FM250300 30013G20KT P6SM SCT035
     FM250600 33009KT P6SM SCT150
     FM251500 35005KT P6SM OVC080
     FM252000 03005KT P6SM OVC030=

USA.gov is the U.S. government's official web portal to all federal, state and local government web resources and services.